sensor_id;sensor_type;location;lat;lon;timestamp;P1;durP1;ratioP1;P2;durP2;ratioP2
53879;SDS011;39791;53.184;5.486;2024-03-08T00:01:40;51.10;;;39.60;;
53879;SDS011;39791;53.184;5.486;2024-03-08T00:04:06;70.68;;;48.80;;
53879;SDS011;39791;53.184;5.486;2024-03-08T00:06:33;60.13;;;46.70;;
53879;SDS011;39791;53.184;5.486;2024-03-08T00:08:58;63.63;;;51.88;;
53879;SDS011;39791;53.184;5.486;2024-03-08T00:11:24;54.63;;;46.00;;
53879;SDS011;39791;53.184;5.486;2024-03-08T00:13:51;64.07;;;51.00;;
53879;SDS011;39791;53.184;5.486;2024-03-08T00:16:17;66.38;;;58.58;;
53879;SDS011;39791;53.184;5.486;2024-03-08T00:18:44;76.20;;;61.00;;
53879;SDS011;39791;53.184;5.486;2024-03-08T00:21:10;78.00;;;57.70;;
53879;SDS011;39791;53.184;5.486;2024-03-08T00:23:37;77.20;;;54.00;;
53879;SDS011;39791;53.184;5.486;2024-03-08T00:26:02;59.75;;;50.35;;
53879;SDS011;39791;53.184;5.486;2024-03-08T00:28:31;79.97;;;57.42;;
53879;SDS011;39791;53.184;5.486;2024-03-08T00:30:57;60.40;;;50.72;;
53879;SDS011;39791;53.184;5.486;2024-03-08T00:33:22;57.35;;;49.50;;
53879;SDS011;39791;53.184;5.486;2024-03-08T00:35:48;66.72;;;56.08;;
53879;SDS011;39791;53.184;5.486;2024-03-08T00:38:13;76.68;;;59.35;;
53879;SDS011;39791;53.184;5.486;2024-03-08T00:40:39;70.00;;;57.53;;
53879;SDS011;39791;53.184;5.486;2024-03-08T00:43:05;68.53;;;53.97;;
53879;SDS011;39791;53.184;5.486;2024-03-08T00:45:31;67.57;;;51.75;;
53879;SDS011;39791;53.184;5.486;2024-03-08T00:47:56;75.40;;;59.70;;
53879;SDS011;39791;53.184;5.486;2024-03-08T00:50:22;72.78;;;58.17;;
53879;SDS011;39791;53.184;5.486;2024-03-08T00:52:48;69.40;;;52.05;;
53879;SDS011;39791;53.184;5.486;2024-03-08T00:55:13;66.00;;;53.55;;
53879;SDS011;39791;53.184;5.486;2024-03-08T00:57:39;68.57;;;56.38;;
53879;SDS011;39791;53.184;5.486;2024-03-08T01:00:06;76.38;;;54.63;;
53879;SDS011;39791;53.184;5.486;2024-03-08T01:02:35;54.67;;;45.95;;
53879;SDS011;39791;53.184;5.486;2024-03-08T01:05:01;71.82;;;58.50;;
53879;SDS011;39791;53.184;5.486;2024-03-08T01:07:27;55.22;;;45.85;;
53879;SDS011;39791;53.184;5.486;2024-03-08T01:09:52;68.80;;;57.00;;
53879;SDS011;39791;53.184;5.486;2024-03-08T01:12:18;69.38;;;55.67;;
53879;SDS011;39791;53.184;5.486;2024-03-08T01:14:43;72.20;;;58.63;;
53879;SDS011;39791;53.184;5.486;2024-03-08T01:17:09;67.65;;;55.70;;
53879;SDS011;39791;53.184;5.486;2024-03-08T01:19:35;73.47;;;60.47;;
53879;SDS011;39791;53.184;5.486;2024-03-08T01:22:01;69.55;;;61.42;;
53879;SDS011;39791;53.184;5.486;2024-03-08T01:24:26;73.18;;;61.85;;
53879;SDS011;39791;53.184;5.486;2024-03-08T01:26:52;76.80;;;60.13;;
53879;SDS011;39791;53.184;5.486;2024-03-08T01:29:19;73.40;;;61.33;;
53879;SDS011;39791;53.184;5.486;2024-03-08T01:31:45;76.70;;;61.85;;
53879;SDS011;39791;53.184;5.486;2024-03-08T01:34:10;79.53;;;63.65;;
53879;SDS011;39791;53.184;5.486;2024-03-08T01:36:36;81.53;;;62.50;;
53879;SDS011;39791;53.184;5.486;2024-03-08T01:39:02;77.95;;;64.15;;
53879;SDS011;39791;53.184;5.486;2024-03-08T01:41:33;84.35;;;66.00;;
53879;SDS011;39791;53.184;5.486;2024-03-08T01:43:59;82.72;;;67.25;;
53879;SDS011;39791;53.184;5.486;2024-03-08T01:46:24;88.78;;;69.47;;
53879;SDS011;39791;53.184;5.486;2024-03-08T01:48:53;85.18;;;67.53;;
53879;SDS011;39791;53.184;5.486;2024-03-08T01:51:19;87.15;;;71.07;;
53879;SDS011;39791;53.184;5.486;2024-03-08T01:53:46;92.22;;;75.45;;
53879;SDS011;39791;53.184;5.486;2024-03-08T01:56:12;99.60;;;74.95;;
53879;SDS011;39791;53.184;5.486;2024-03-08T01:58:40;93.47;;;76.90;;
53879;SDS011;39791;53.184;5.486;2024-03-08T02:01:10;95.78;;;81.53;;
53879;SDS011;39791;53.184;5.486;2024-03-08T02:03:39;101.75;;;80.60;;
53879;SDS011;39791;53.184;5.486;2024-03-08T02:06:05;100.90;;;81.45;;
53879;SDS011;39791;53.184;5.486;2024-03-08T02:08:35;99.32;;;81.47;;
53879;SDS011;39791;53.184;5.486;2024-03-08T02:11:01;100.10;;;76.43;;
53879;SDS011;39791;53.184;5.486;2024-03-08T02:13:27;107.88;;;82.18;;
53879;SDS011;39791;53.184;5.486;2024-03-08T02:16:00;97.22;;;75.07;;
53879;SDS011;39791;53.184;5.486;2024-03-08T02:18:26;101.13;;;79.00;;
53879;SDS011;39791;53.184;5.486;2024-03-08T02:20:56;109.30;;;84.00;;
53879;SDS011;39791;53.184;5.486;2024-03-08T02:23:23;108.65;;;85.20;;
53879;SDS011;39791;53.184;5.486;2024-03-08T02:25:52;109.55;;;85.85;;
53879;SDS011;39791;53.184;5.486;2024-03-08T02:28:19;108.15;;;83.30;;
53879;SDS011;39791;53.184;5.486;2024-03-08T02:30:45;110.30;;;85.82;;
53879;SDS011;39791;53.184;5.486;2024-03-08T02:33:13;105.85;;;83.82;;
53879;SDS011;39791;53.184;5.486;2024-03-08T02:35:42;110.88;;;83.38;;
53879;SDS011;39791;53.184;5.486;2024-03-08T02:38:15;114.28;;;88.95;;
53879;SDS011;39791;53.184;5.486;2024-03-08T02:40:43;106.57;;;82.00;;
53879;SDS011;39791;53.184;5.486;2024-03-08T02:43:13;102.57;;;84.32;;
53879;SDS011;39791;53.184;5.486;2024-03-08T02:45:40;116.30;;;92.80;;
53879;SDS011;39791;53.184;5.486;2024-03-08T02:48:07;108.82;;;82.60;;
53879;SDS011;39791;53.184;5.486;2024-03-08T02:50:33;113.70;;;93.95;;
53879;SDS011;39791;53.184;5.486;2024-03-08T02:53:00;107.22;;;86.55;;
53879;SDS011;39791;53.184;5.486;2024-03-08T02:55:26;117.90;;;96.78;;
53879;SDS011;39791;53.184;5.486;2024-03-08T02:57:52;119.20;;;98.63;;
53879;SDS011;39791;53.184;5.486;2024-03-08T03:00:21;132.40;;;99.43;;
53879;SDS011;39791;53.184;5.486;2024-03-08T03:02:52;114.80;;;90.65;;
53879;SDS011;39791;53.184;5.486;2024-03-08T03:05:22;117.32;;;95.70;;
53879;SDS011;39791;53.184;5.486;2024-03-08T03:07:50;122.68;;;97.18;;
53879;SDS011;39791;53.184;5.486;2024-03-08T03:10:17;121.50;;;95.97;;
53879;SDS011;39791;53.184;5.486;2024-03-08T03:12:43;116.80;;;94.65;;
53879;SDS011;39791;53.184;5.486;2024-03-08T03:15:10;117.45;;;91.60;;
53879;SDS011;39791;53.184;5.486;2024-03-08T03:17:37;111.75;;;91.30;;
53879;SDS011;39791;53.184;5.486;2024-03-08T03:20:04;113.55;;;89.22;;
53879;SDS011;39791;53.184;5.486;2024-03-08T03:22:38;120.93;;;92.55;;
53879;SDS011;39791;53.184;5.486;2024-03-08T03:25:04;129.93;;;97.15;;
53879;SDS011;39791;53.184;5.486;2024-03-08T03:27:31;125.03;;;100.43;;
53879;SDS011;39791;53.184;5.486;2024-03-08T03:29:57;126.63;;;98.60;;
53879;SDS011;39791;53.184;5.486;2024-03-08T03:32:23;123.22;;;98.05;;
53879;SDS011;39791;53.184;5.486;2024-03-08T03:34:49;120.55;;;98.20;;
53879;SDS011;39791;53.184;5.486;2024-03-08T03:37:18;123.05;;;98.80;;
53879;SDS011;39791;53.184;5.486;2024-03-08T03:39:45;109.75;;;88.22;;
53879;SDS011;39791;53.184;5.486;2024-03-08T03:42:14;115.22;;;91.18;;
53879;SDS011;39791;53.184;5.486;2024-03-08T03:44:41;119.65;;;96.78;;
53879;SDS011;39791;53.184;5.486;2024-03-08T03:47:11;118.25;;;93.90;;
53879;SDS011;39791;53.184;5.486;2024-03-08T03:49:36;119.43;;;94.70;;
53879;SDS011;39791;53.184;5.486;2024-03-08T03:52:02;112.13;;;90.32;;
53879;SDS011;39791;53.184;5.486;2024-03-08T03:54:29;118.00;;;93.93;;
53879;SDS011;39791;53.184;5.486;2024-03-08T03:56:56;112.90;;;84.53;;
53879;SDS011;39791;53.184;5.486;2024-03-08T03:59:21;116.57;;;87.78;;
53879;SDS011;39791;53.184;5.486;2024-03-08T04:01:47;100.22;;;78.65;;
53879;SDS011;39791;53.184;5.486;2024-03-08T04:04:14;105.82;;;86.32;;
53879;SDS011;39791;53.184;5.486;2024-03-08T04:06:40;105.80;;;80.75;;
53879;SDS011;39791;53.184;5.486;2024-03-08T04:09:06;114.40;;;85.50;;
53879;SDS011;39791;53.184;5.486;2024-03-08T04:11:32;104.32;;;84.85;;
53879;SDS011;39791;53.184;5.486;2024-03-08T04:13:57;111.63;;;87.22;;
53879;SDS011;39791;53.184;5.486;2024-03-08T04:16:23;111.50;;;89.88;;
53879;SDS011;39791;53.184;5.486;2024-03-08T04:18:49;111.10;;;89.53;;
53879;SDS011;39791;53.184;5.486;2024-03-08T04:21:15;106.78;;;87.10;;
53879;SDS011;39791;53.184;5.486;2024-03-08T04:23:40;100.45;;;79.47;;
53879;SDS011;39791;53.184;5.486;2024-03-08T04:26:07;93.25;;;73.80;;
53879;SDS011;39791;53.184;5.486;2024-03-08T04:28:34;87.18;;;71.13;;
53879;SDS011;39791;53.184;5.486;2024-03-08T04:30:59;89.30;;;74.05;;
53879;SDS011;39791;53.184;5.486;2024-03-08T04:33:28;89.05;;;71.05;;
53879;SDS011;39791;53.184;5.486;2024-03-08T04:35:53;91.35;;;69.95;;
53879;SDS011;39791;53.184;5.486;2024-03-08T04:38:19;90.32;;;70.40;;
53879;SDS011;39791;53.184;5.486;2024-03-08T04:40:45;82.63;;;62.65;;
53879;SDS011;39791;53.184;5.486;2024-03-08T04:43:10;72.50;;;55.90;;
53879;SDS011;39791;53.184;5.486;2024-03-08T04:45:36;84.22;;;63.75;;
53879;SDS011;39791;53.184;5.486;2024-03-08T04:48:02;82.47;;;63.17;;
53879;SDS011;39791;53.184;5.486;2024-03-08T04:50:28;68.25;;;50.17;;
53879;SDS011;39791;53.184;5.486;2024-03-08T04:52:54;77.53;;;57.80;;
53879;SDS011;39791;53.184;5.486;2024-03-08T04:55:20;53.78;;;47.65;;
53879;SDS011;39791;53.184;5.486;2024-03-08T04:57:46;61.50;;;54.25;;
53879;SDS011;39791;53.184;5.486;2024-03-08T05:00:13;63.50;;;55.60;;
53879;SDS011;39791;53.184;5.486;2024-03-08T05:02:40;67.38;;;51.78;;
53879;SDS011;39791;53.184;5.486;2024-03-08T05:05:06;70.63;;;53.70;;
53879;SDS011;39791;53.184;5.486;2024-03-08T05:07:33;78.32;;;59.58;;
53879;SDS011;39791;53.184;5.486;2024-03-08T05:09:59;57.03;;;47.92;;
53879;SDS011;39791;53.184;5.486;2024-03-08T05:12:25;50.90;;;44.65;;
53879;SDS011;39791;53.184;5.486;2024-03-08T05:14:51;65.47;;;51.05;;
53879;SDS011;39791;53.184;5.486;2024-03-08T05:17:16;64.07;;;52.75;;
53879;SDS011;39791;53.184;5.486;2024-03-08T05:19:42;55.85;;;47.90;;
53879;SDS011;39791;53.184;5.486;2024-03-08T05:22:08;55.75;;;45.15;;
53879;SDS011;39791;53.184;5.486;2024-03-08T05:24:34;53.00;;;44.38;;
53879;SDS011;39791;53.184;5.486;2024-03-08T05:27:00;46.45;;;41.38;;
53879;SDS011;39791;53.184;5.486;2024-03-08T05:29:27;55.40;;;46.33;;
53879;SDS011;39791;53.184;5.486;2024-03-08T05:31:53;49.10;;;40.72;;
53879;SDS011;39791;53.184;5.486;2024-03-08T05:34:20;50.30;;;40.20;;
53879;SDS011;39791;53.184;5.486;2024-03-08T05:36:47;66.55;;;48.85;;
53879;SDS011;39791;53.184;5.486;2024-03-08T05:39:14;65.38;;;49.95;;
53879;SDS011;39791;53.184;5.486;2024-03-08T05:41:41;52.20;;;45.55;;
53879;SDS011;39791;53.184;5.486;2024-03-08T05:44:07;68.90;;;54.00;;
53879;SDS011;39791;53.184;5.486;2024-03-08T05:46:33;73.00;;;58.70;;
53879;SDS011;39791;53.184;5.486;2024-03-08T05:49:00;67.18;;;54.65;;
53879;SDS011;39791;53.184;5.486;2024-03-08T05:51:34;70.50;;;55.22;;
53879;SDS011;39791;53.184;5.486;2024-03-08T05:54:03;70.80;;;55.67;;
53879;SDS011;39791;53.184;5.486;2024-03-08T05:56:35;69.93;;;52.95;;
53879;SDS011;39791;53.184;5.486;2024-03-08T05:59:01;75.18;;;54.20;;
53879;SDS011;39791;53.184;5.486;2024-03-08T06:01:28;67.82;;;51.28;;
53879;SDS011;39791;53.184;5.486;2024-03-08T06:03:54;66.10;;;50.78;;
53879;SDS011;39791;53.184;5.486;2024-03-08T06:06:21;66.82;;;51.53;;
53879;SDS011;39791;53.184;5.486;2024-03-08T06:08:47;68.00;;;50.03;;
53879;SDS011;39791;53.184;5.486;2024-03-08T06:11:16;73.25;;;54.90;;
53879;SDS011;39791;53.184;5.486;2024-03-08T06:13:44;79.20;;;54.90;;
53879;SDS011;39791;53.184;5.486;2024-03-08T06:16:10;76.90;;;56.15;;
53879;SDS011;39791;53.184;5.486;2024-03-08T06:18:36;72.53;;;53.05;;
53879;SDS011;39791;53.184;5.486;2024-03-08T06:21:03;69.30;;;53.75;;
53879;SDS011;39791;53.184;5.486;2024-03-08T06:23:31;65.93;;;56.13;;
53879;SDS011;39791;53.184;5.486;2024-03-08T06:25:57;62.30;;;51.03;;
53879;SDS011;39791;53.184;5.486;2024-03-08T06:28:22;66.50;;;49.53;;
53879;SDS011;39791;53.184;5.486;2024-03-08T06:30:48;73.78;;;52.85;;
53879;SDS011;39791;53.184;5.486;2024-03-08T06:33:15;68.38;;;56.42;;
53879;SDS011;39791;53.184;5.486;2024-03-08T06:35:41;75.55;;;53.22;;
53879;SDS011;39791;53.184;5.486;2024-03-08T06:38:07;70.88;;;55.53;;
53879;SDS011;39791;53.184;5.486;2024-03-08T06:40:32;73.30;;;56.13;;
53879;SDS011;39791;53.184;5.486;2024-03-08T06:42:58;72.35;;;55.20;;
53879;SDS011;39791;53.184;5.486;2024-03-08T06:45:24;54.92;;;44.30;;
53879;SDS011;39791;53.184;5.486;2024-03-08T06:47:50;70.10;;;52.38;;
53879;SDS011;39791;53.184;5.486;2024-03-08T06:50:16;64.38;;;49.42;;
53879;SDS011;39791;53.184;5.486;2024-03-08T06:52:42;53.65;;;45.00;;
53879;SDS011;39791;53.184;5.486;2024-03-08T06:55:09;70.95;;;53.20;;
53879;SDS011;39791;53.184;5.486;2024-03-08T06:57:41;70.68;;;51.50;;
53879;SDS011;39791;53.184;5.486;2024-03-08T07:00:07;66.38;;;47.70;;
53879;SDS011;39791;53.184;5.486;2024-03-08T07:02:40;70.25;;;51.03;;
53879;SDS011;39791;53.184;5.486;2024-03-08T07:05:06;50.90;;;43.33;;
53879;SDS011;39791;53.184;5.486;2024-03-08T07:07:35;58.95;;;46.95;;
53879;SDS011;39791;53.184;5.486;2024-03-08T07:10:01;68.65;;;50.58;;
53879;SDS011;39791;53.184;5.486;2024-03-08T07:12:27;68.38;;;48.60;;
53879;SDS011;39791;53.184;5.486;2024-03-08T07:14:52;52.53;;;41.90;;
53879;SDS011;39791;53.184;5.486;2024-03-08T07:17:18;63.78;;;49.85;;
53879;SDS011;39791;53.184;5.486;2024-03-08T07:19:44;57.03;;;43.05;;
53879;SDS011;39791;53.184;5.486;2024-03-08T07:22:10;51.20;;;40.13;;
53879;SDS011;39791;53.184;5.486;2024-03-08T07:24:36;44.90;;;38.25;;
53879;SDS011;39791;53.184;5.486;2024-03-08T07:27:01;64.45;;;49.70;;
53879;SDS011;39791;53.184;5.486;2024-03-08T07:29:30;66.82;;;47.85;;
53879;SDS011;39791;53.184;5.486;2024-03-08T07:31:56;64.07;;;49.08;;
53879;SDS011;39791;53.184;5.486;2024-03-08T07:34:46;65.95;;;48.80;;
53879;SDS011;39791;53.184;5.486;2024-03-08T07:37:16;52.15;;;44.13;;
53879;SDS011;39791;53.184;5.486;2024-03-08T07:39:42;45.15;;;37.17;;
53879;SDS011;39791;53.184;5.486;2024-03-08T07:42:08;58.30;;;47.58;;
53879;SDS011;39791;53.184;5.486;2024-03-08T07:44:35;53.83;;;42.38;;
53879;SDS011;39791;53.184;5.486;2024-03-08T07:47:01;59.80;;;46.97;;
53879;SDS011;39791;53.184;5.486;2024-03-08T07:49:26;68.32;;;50.55;;
53879;SDS011;39791;53.184;5.486;2024-03-08T07:51:52;66.00;;;47.97;;
53879;SDS011;39791;53.184;5.486;2024-03-08T07:54:18;52.47;;;41.05;;
53879;SDS011;39791;53.184;5.486;2024-03-08T07:56:43;59.58;;;47.63;;
53879;SDS011;39791;53.184;5.486;2024-03-08T07:59:09;46.22;;;37.55;;
53879;SDS011;39791;53.184;5.486;2024-03-08T08:01:37;58.63;;;47.15;;
53879;SDS011;39791;53.184;5.486;2024-03-08T08:04:03;53.65;;;44.25;;
53879;SDS011;39791;53.184;5.486;2024-03-08T08:06:28;52.25;;;39.53;;
53879;SDS011;39791;53.184;5.486;2024-03-08T08:08:58;53.80;;;41.53;;
53879;SDS011;39791;53.184;5.486;2024-03-08T08:11:26;56.80;;;45.10;;
53879;SDS011;39791;53.184;5.486;2024-03-08T08:13:53;45.40;;;38.17;;
53879;SDS011;39791;53.184;5.486;2024-03-08T08:16:19;56.78;;;43.95;;
53879;SDS011;39791;53.184;5.486;2024-03-08T08:18:45;43.25;;;34.97;;
53879;SDS011;39791;53.184;5.486;2024-03-08T08:21:12;48.20;;;34.03;;
53879;SDS011;39791;53.184;5.486;2024-03-08T08:23:38;51.58;;;40.08;;
53879;SDS011;39791;53.184;5.486;2024-03-08T08:26:04;48.38;;;39.95;;
53879;SDS011;39791;53.184;5.486;2024-03-08T08:28:32;42.92;;;36.30;;
53879;SDS011;39791;53.184;5.486;2024-03-08T08:30:58;40.60;;;35.75;;
53879;SDS011;39791;53.184;5.486;2024-03-08T08:33:24;58.03;;;41.53;;
53879;SDS011;39791;53.184;5.486;2024-03-08T08:35:50;34.15;;;29.88;;
53879;SDS011;39791;53.184;5.486;2024-03-08T08:38:18;45.13;;;36.53;;
53879;SDS011;39791;53.184;5.486;2024-03-08T08:40:45;53.25;;;41.35;;
53879;SDS011;39791;53.184;5.486;2024-03-08T08:43:12;49.08;;;43.28;;
53879;SDS011;39791;53.184;5.486;2024-03-08T08:45:39;43.00;;;37.35;;
53879;SDS011;39791;53.184;5.486;2024-03-08T08:48:05;49.83;;;43.88;;
53879;SDS011;39791;53.184;5.486;2024-03-08T08:50:31;47.08;;;42.10;;
53879;SDS011;39791;53.184;5.486;2024-03-08T08:52:57;50.67;;;45.45;;
53879;SDS011;39791;53.184;5.486;2024-03-08T08:55:23;39.72;;;31.65;;
53879;SDS011;39791;53.184;5.486;2024-03-08T08:57:52;43.15;;;38.53;;
53879;SDS011;39791;53.184;5.486;2024-03-08T09:00:18;53.63;;;46.42;;
53879;SDS011;39791;53.184;5.486;2024-03-08T09:02:45;43.28;;;38.65;;
53879;SDS011;39791;53.184;5.486;2024-03-08T09:05:12;46.10;;;41.20;;
53879;SDS011;39791;53.184;5.486;2024-03-08T09:07:39;37.63;;;33.67;;
53879;SDS011;39791;53.184;5.486;2024-03-08T09:10:05;54.25;;;48.65;;
53879;SDS011;39791;53.184;5.486;2024-03-08T09:12:32;27.48;;;18.25;;
53879;SDS011;39791;53.184;5.486;2024-03-08T09:14:58;44.90;;;40.03;;
53879;SDS011;39791;53.184;5.486;2024-03-08T09:17:24;29.73;;;23.90;;
53879;SDS011;39791;53.184;5.486;2024-03-08T09:19:50;37.05;;;33.05;;
53879;SDS011;39791;53.184;5.486;2024-03-08T09:22:16;38.03;;;32.70;;
53879;SDS011;39791;53.184;5.486;2024-03-08T09:24:43;33.97;;;20.67;;
53879;SDS011;39791;53.184;5.486;2024-03-08T09:27:08;35.13;;;31.27;;
53879;SDS011;39791;53.184;5.486;2024-03-08T09:29:37;35.55;;;27.95;;
53879;SDS011;39791;53.184;5.486;2024-03-08T09:32:02;36.00;;;30.90;;
53879;SDS011;39791;53.184;5.486;2024-03-08T09:34:28;21.60;;;12.68;;
53879;SDS011;39791;53.184;5.486;2024-03-08T09:36:55;30.88;;;25.33;;
53879;SDS011;39791;53.184;5.486;2024-03-08T09:39:21;36.58;;;31.02;;
53879;SDS011;39791;53.184;5.486;2024-03-08T09:41:47;32.80;;;28.75;;
53879;SDS011;39791;53.184;5.486;2024-03-08T09:44:15;30.73;;;16.48;;
53879;SDS011;39791;53.184;5.486;2024-03-08T09:46:41;30.92;;;21.05;;
53879;SDS011;39791;53.184;5.486;2024-03-08T09:49:07;32.42;;;23.45;;
53879;SDS011;39791;53.184;5.486;2024-03-08T09:51:33;32.25;;;24.10;;
53879;SDS011;39791;53.184;5.486;2024-03-08T09:54:05;27.88;;;18.67;;
53879;SDS011;39791;53.184;5.486;2024-03-08T09:56:35;29.67;;;23.08;;
53879;SDS011;39791;53.184;5.486;2024-03-08T09:59:01;33.15;;;26.33;;
53879;SDS011;39791;53.184;5.486;2024-03-08T10:01:45;28.45;;;25.38;;
53879;SDS011;39791;53.184;5.486;2024-03-08T10:04:11;37.80;;;18.95;;
53879;SDS011;39791;53.184;5.486;2024-03-08T10:06:39;34.60;;;24.75;;
53879;SDS011;39791;53.184;5.486;2024-03-08T10:09:05;22.77;;;13.15;;
53879;SDS011;39791;53.184;5.486;2024-03-08T10:11:32;34.58;;;24.08;;
53879;SDS011;39791;53.184;5.486;2024-03-08T10:14:00;34.38;;;25.83;;
53879;SDS011;39791;53.184;5.486;2024-03-08T10:16:29;31.00;;;26.35;;
53879;SDS011;39791;53.184;5.486;2024-03-08T10:18:58;32.80;;;26.02;;
53879;SDS011;39791;53.184;5.486;2024-03-08T10:21:25;31.30;;;24.20;;
53879;SDS011;39791;53.184;5.486;2024-03-08T10:23:52;32.05;;;26.13;;
53879;SDS011;39791;53.184;5.486;2024-03-08T10:26:18;37.15;;;27.05;;
53879;SDS011;39791;53.184;5.486;2024-03-08T10:28:47;27.73;;;15.00;;
53879;SDS011;39791;53.184;5.486;2024-03-08T10:31:17;34.35;;;26.80;;
53879;SDS011;39791;53.184;5.486;2024-03-08T10:33:44;33.38;;;28.40;;
53879;SDS011;39791;53.184;5.486;2024-03-08T10:36:14;32.33;;;26.98;;
53879;SDS011;39791;53.184;5.486;2024-03-08T10:38:41;37.25;;;28.30;;
53879;SDS011;39791;53.184;5.486;2024-03-08T10:41:09;33.38;;;27.77;;
53879;SDS011;39791;53.184;5.486;2024-03-08T10:49:22;35.65;;;27.13;;
53879;SDS011;39791;53.184;5.486;2024-03-08T10:51:51;34.42;;;27.60;;
53879;SDS011;39791;53.184;5.486;2024-03-08T10:54:17;33.88;;;28.95;;
53879;SDS011;39791;53.184;5.486;2024-03-08T10:56:45;30.85;;;25.15;;
53879;SDS011;39791;53.184;5.486;2024-03-08T10:59:13;33.97;;;27.60;;
53879;SDS011;39791;53.184;5.486;2024-03-08T11:01:39;30.83;;;25.60;;
53879;SDS011;39791;53.184;5.486;2024-03-08T11:04:05;31.27;;;25.85;;
53879;SDS011;39791;53.184;5.486;2024-03-08T11:09:03;30.88;;;22.73;;
53879;SDS011;39791;53.184;5.486;2024-03-08T11:11:47;33.22;;;26.35;;
53879;SDS011;39791;53.184;5.486;2024-03-08T11:17:13;34.13;;;27.52;;
53879;SDS011;39791;53.184;5.486;2024-03-08T11:19:44;31.42;;;25.00;;
53879;SDS011;39791;53.184;5.486;2024-03-08T11:22:19;34.67;;;27.20;;
53879;SDS011;39791;53.184;5.486;2024-03-08T11:24:48;35.13;;;27.15;;
53879;SDS011;39791;53.184;5.486;2024-03-08T11:27:14;35.30;;;27.38;;
53879;SDS011;39791;53.184;5.486;2024-03-08T11:29:40;33.95;;;26.17;;
53879;SDS011;39791;53.184;5.486;2024-03-08T11:32:15;35.40;;;30.27;;
53879;SDS011;39791;53.184;5.486;2024-03-08T11:34:47;33.88;;;28.92;;
53879;SDS011;39791;53.184;5.486;2024-03-08T11:37:17;34.63;;;25.20;;
53879;SDS011;39791;53.184;5.486;2024-03-08T11:39:49;34.80;;;25.38;;
53879;SDS011;39791;53.184;5.486;2024-03-08T11:42:16;35.42;;;27.48;;
53879;SDS011;39791;53.184;5.486;2024-03-08T11:44:48;22.33;;;13.25;;
53879;SDS011;39791;53.184;5.486;2024-03-08T11:47:15;37.38;;;30.77;;
53879;SDS011;39791;53.184;5.486;2024-03-08T11:49:41;35.17;;;28.42;;
53879;SDS011;39791;53.184;5.486;2024-03-08T11:52:14;34.92;;;27.48;;
53879;SDS011;39791;53.184;5.486;2024-03-08T11:54:41;34.58;;;20.92;;
53879;SDS011;39791;53.184;5.486;2024-03-08T11:57:08;37.63;;;29.17;;
53879;SDS011;39791;53.184;5.486;2024-03-08T11:59:35;24.30;;;12.13;;
53879;SDS011;39791;53.184;5.486;2024-03-08T12:02:02;33.97;;;29.27;;
53879;SDS011;39791;53.184;5.486;2024-03-08T12:04:29;34.13;;;30.33;;
53879;SDS011;39791;53.184;5.486;2024-03-08T12:06:56;35.33;;;27.85;;
53879;SDS011;39791;53.184;5.486;2024-03-08T12:09:25;35.15;;;28.45;;
53879;SDS011;39791;53.184;5.486;2024-03-08T12:11:51;33.58;;;27.42;;
53879;SDS011;39791;53.184;5.486;2024-03-08T12:14:17;23.45;;;15.93;;
53879;SDS011;39791;53.184;5.486;2024-03-08T12:16:43;33.30;;;26.75;;
53879;SDS011;39791;53.184;5.486;2024-03-08T12:19:09;30.65;;;18.75;;
53879;SDS011;39791;53.184;5.486;2024-03-08T12:21:35;32.97;;;28.60;;
53879;SDS011;39791;53.184;5.486;2024-03-08T12:24:08;36.92;;;29.92;;
53879;SDS011;39791;53.184;5.486;2024-03-08T12:26:38;38.20;;;29.10;;
53879;SDS011;39791;53.184;5.486;2024-03-08T12:29:17;35.28;;;30.33;;
53879;SDS011;39791;53.184;5.486;2024-03-08T12:31:52;35.22;;;21.95;;
53879;SDS011;39791;53.184;5.486;2024-03-08T12:34:19;33.03;;;29.13;;
53879;SDS011;39791;53.184;5.486;2024-03-08T12:36:45;32.47;;;25.83;;
53879;SDS011;39791;53.184;5.486;2024-03-08T12:39:13;36.70;;;31.27;;
53879;SDS011;39791;53.184;5.486;2024-03-08T12:41:41;34.67;;;30.33;;
53879;SDS011;39791;53.184;5.486;2024-03-08T12:44:07;33.85;;;27.40;;
53879;SDS011;39791;53.184;5.486;2024-03-08T12:46:36;35.60;;;30.23;;
53879;SDS011;39791;53.184;5.486;2024-03-08T12:49:05;27.30;;;18.90;;
53879;SDS011;39791;53.184;5.486;2024-03-08T12:51:32;33.33;;;28.75;;
53879;SDS011;39791;53.184;5.486;2024-03-08T12:53:58;36.20;;;31.85;;
53879;SDS011;39791;53.184;5.486;2024-03-08T12:56:30;35.28;;;28.80;;
53879;SDS011;39791;53.184;5.486;2024-03-08T12:58:58;33.42;;;28.55;;
53879;SDS011;39791;53.184;5.486;2024-03-08T13:01:25;32.97;;;20.45;;
53879;SDS011;39791;53.184;5.486;2024-03-08T13:03:52;36.90;;;30.30;;
53879;SDS011;39791;53.184;5.486;2024-03-08T13:06:18;36.45;;;29.10;;
53879;SDS011;39791;53.184;5.486;2024-03-08T13:08:46;36.38;;;26.77;;
53879;SDS011;39791;53.184;5.486;2024-03-08T13:11:13;32.55;;;27.52;;
53879;SDS011;39791;53.184;5.486;2024-03-08T13:13:42;32.65;;;29.13;;
53879;SDS011;39791;53.184;5.486;2024-03-08T13:16:09;36.97;;;29.52;;
53879;SDS011;39791;53.184;5.486;2024-03-08T13:18:36;25.85;;;14.00;;
53879;SDS011;39791;53.184;5.486;2024-03-08T13:21:02;36.83;;;29.10;;
53879;SDS011;39791;53.184;5.486;2024-03-08T13:23:32;33.38;;;28.73;;
53879;SDS011;39791;53.184;5.486;2024-03-08T13:26:04;37.65;;;27.33;;
53879;SDS011;39791;53.184;5.486;2024-03-08T13:28:30;34.60;;;30.83;;
53879;SDS011;39791;53.184;5.486;2024-03-08T13:31:01;35.63;;;29.25;;
53879;SDS011;39791;53.184;5.486;2024-03-08T13:33:35;34.70;;;30.40;;
53879;SDS011;39791;53.184;5.486;2024-03-08T13:36:05;20.13;;;12.85;;
53879;SDS011;39791;53.184;5.486;2024-03-08T13:38:34;32.42;;;24.35;;
53879;SDS011;39791;53.184;5.486;2024-03-08T13:41:01;28.35;;;22.48;;
53879;SDS011;39791;53.184;5.486;2024-03-08T13:43:27;31.92;;;25.85;;
53879;SDS011;39791;53.184;5.486;2024-03-08T13:45:53;31.95;;;27.98;;
53879;SDS011;39791;53.184;5.486;2024-03-08T13:48:22;30.27;;;26.48;;
53879;SDS011;39791;53.184;5.486;2024-03-08T13:50:48;26.17;;;16.35;;
53879;SDS011;39791;53.184;5.486;2024-03-08T13:53:14;31.70;;;28.00;;
53879;SDS011;39791;53.184;5.486;2024-03-08T13:55:40;33.67;;;26.63;;
53879;SDS011;39791;53.184;5.486;2024-03-08T13:58:06;34.10;;;28.05;;
53879;SDS011;39791;53.184;5.486;2024-03-08T14:00:34;29.80;;;22.45;;
53879;SDS011;39791;53.184;5.486;2024-03-08T14:03:01;31.63;;;25.02;;
53879;SDS011;39791;53.184;5.486;2024-03-08T14:05:35;31.67;;;24.40;;
53879;SDS011;39791;53.184;5.486;2024-03-08T14:08:04;26.90;;;21.10;;
53879;SDS011;39791;53.184;5.486;2024-03-08T14:10:41;31.40;;;21.33;;
53879;SDS011;39791;53.184;5.486;2024-03-08T14:13:07;31.80;;;26.65;;
53879;SDS011;39791;53.184;5.486;2024-03-08T14:15:33;36.00;;;28.88;;
53879;SDS011;39791;53.184;5.486;2024-03-08T14:18:00;33.38;;;29.75;;
53879;SDS011;39791;53.184;5.486;2024-03-08T14:20:26;35.28;;;30.77;;
53879;SDS011;39791;53.184;5.486;2024-03-08T14:22:52;33.28;;;25.70;;
53879;SDS011;39791;53.184;5.486;2024-03-08T14:25:21;35.05;;;26.77;;
53879;SDS011;39791;53.184;5.486;2024-03-08T14:27:49;34.35;;;29.27;;
53879;SDS011;39791;53.184;5.486;2024-03-08T14:30:16;28.55;;;22.92;;